createdAt,value
2023-03-06T00:01:00.586Z,98058.47
2023-03-06T00:03:28.241Z,98059.03
2023-03-06T00:05:57.639Z,98056.69
2023-03-06T00:08:26.572Z,98052.72
2023-03-06T00:10:53.808Z,98049.00
2023-03-06T00:13:21.018Z,98054.59
2023-03-06T00:15:49.308Z,98055.16
2023-03-06T00:18:16.389Z,98056.81
2023-03-06T00:20:44.295Z,98056.81
2023-03-06T00:23:11.927Z,98045.94
2023-03-06T00:25:43.157Z,98058.47
2023-03-06T00:28:10.367Z,98056.69
2023-03-06T00:30:37.718Z,98043.41
2023-03-06T00:33:04.920Z,98056.34
2023-03-06T00:35:31.841Z,98059.53
2023-03-06T00:37:59.896Z,98053.69
2023-03-06T00:40:27.513Z,98061.72
2023-03-06T00:42:54.442Z,98061.72
2023-03-06T00:45:21.446Z,98056.72
2023-03-06T00:47:48.460Z,98058.50
2023-03-06T00:50:15.500Z,98059.75
2023-03-06T00:52:42.583Z,98060.94
2023-03-06T00:55:10.751Z,98049.72
2023-03-06T00:57:37.744Z,98058.03
2023-03-06T01:00:06.312Z,98058.72
2023-03-06T01:02:33.818Z,98054.28
2023-03-06T01:05:00.802Z,98049.94
2023-03-06T01:07:27.938Z,98053.94
2023-03-06T01:09:54.887Z,98059.09
2023-03-06T01:12:23.516Z,98047.78
2023-03-06T01:14:51.627Z,98056.41
2023-03-06T01:17:18.572Z,98057.09
2023-03-06T01:19:45.518Z,98053.25
2023-03-06T01:22:14.266Z,98056.75
2023-03-06T01:24:41.162Z,98058.38
2023-03-06T01:27:08.409Z,98049.75
2023-03-06T01:29:35.385Z,98063.28
2023-03-06T01:32:03.720Z,98058.97
2023-03-06T01:34:30.864Z,98061.44
2023-03-06T01:36:57.925Z,98054.66
2023-03-06T01:39:25.110Z,98067.25
2023-03-06T01:41:52.261Z,98059.09
2023-03-06T01:44:21.139Z,98065.38
2023-03-06T01:46:53.700Z,98064.44
2023-03-06T01:49:25.855Z,98064.69
2023-03-06T01:52:01.856Z,98068.19
2023-03-06T01:54:35.232Z,98075.88
2023-03-06T01:57:10.239Z,98072.50
2023-03-06T01:59:39.390Z,98068.16
2023-03-06T02:02:10.740Z,98070.16
2023-03-06T02:04:40.451Z,98063.97
2023-03-06T02:07:08.522Z,98075.16
2023-03-06T02:09:37.634Z,98071.88
2023-03-06T02:12:14.493Z,98075.13
2023-03-06T02:14:42.581Z,98070.94
2023-03-06T02:17:12.865Z,98068.72
2023-03-06T02:20:13.103Z,98076.06
2023-03-06T02:23:11.627Z,98078.22
2023-03-06T02:25:41.533Z,98075.66
2023-03-06T02:28:13.786Z,98074.84
2023-03-06T02:30:42.616Z,98079.88
2023-03-06T02:33:19.264Z,98076.97
2023-03-06T02:35:55.622Z,98078.13
2023-03-06T02:38:28.164Z,98071.84
2023-03-06T02:41:02.385Z,98072.09
2023-03-06T02:43:37.831Z,98070.25
2023-03-06T02:46:04.946Z,98074.78
2023-03-06T02:48:32.433Z,98074.91
2023-03-06T02:51:00.092Z,98066.16
2023-03-06T02:53:27.519Z,98073.97
2023-03-06T02:55:54.758Z,98077.00
2023-03-06T02:58:21.848Z,98071.53
2023-03-06T03:00:49.718Z,98077.75
2023-03-06T03:03:18.070Z,98072.38
2023-03-06T03:05:44.940Z,98079.13
2023-03-06T03:08:19.753Z,98076.91
2023-03-06T03:10:48.489Z,98072.31
2023-03-06T03:13:15.620Z,98073.97
2023-03-06T03:15:42.690Z,98073.28
2023-03-06T03:18:11.591Z,98075.25
2023-03-06T03:20:42.359Z,98077.22
2023-03-06T03:23:09.516Z,98075.09
2023-03-06T03:25:36.494Z,98077.91
2023-03-06T03:28:04.093Z,98067.88
2023-03-06T03:30:31.333Z,98072.97
2023-03-06T03:33:01.598Z,98076.47
2023-03-06T03:35:28.880Z,98081.16
2023-03-06T03:37:57.186Z,98074.63
2023-03-06T03:40:24.188Z,98081.78
2023-03-06T03:42:51.735Z,98084.00
2023-03-06T03:45:19.948Z,98079.78
2023-03-06T03:47:46.967Z,98079.66
2023-03-06T03:50:14.180Z,98076.97
2023-03-06T03:52:41.440Z,98081.84
2023-03-06T03:55:08.704Z,98089.09
2023-03-06T03:57:39.293Z,98086.31
2023-03-06T04:00:08.241Z,98080.84
2023-03-06T04:02:45.690Z,98088.59
2023-03-06T04:05:30.035Z,98085.16
2023-03-06T04:07:57.544Z,98082.94
2023-03-06T04:10:24.495Z,98083.78
2023-03-06T04:12:51.670Z,98081.31
2023-03-06T04:15:18.731Z,98081.78
2023-03-06T04:17:47.188Z,98086.69
2023-03-06T04:20:18.048Z,98086.78
2023-03-06T04:22:46.711Z,98084.69
2023-03-06T04:25:13.849Z,98081.91
2023-03-06T04:27:41.477Z,98086.59
2023-03-06T04:30:09.381Z,98081.81
2023-03-06T04:32:36.723Z,98084.97
2023-03-06T04:35:05.376Z,98077.22
2023-03-06T04:37:37.222Z,98081.44
2023-03-06T04:40:05.607Z,98081.00
2023-03-06T04:42:32.816Z,98083.56
2023-03-06T04:45:04.353Z,98068.88
2023-03-06T04:47:31.448Z,98088.47
2023-03-06T04:49:58.322Z,98087.44
2023-03-06T04:52:25.237Z,98088.25
2023-03-06T04:54:52.257Z,98084.16
2023-03-06T04:57:19.155Z,98086.38
2023-03-06T04:59:46.173Z,98084.31
2023-03-06T05:02:13.178Z,98096.75
2023-03-06T05:04:40.120Z,98087.66
2023-03-06T05:07:07.038Z,98090.34
2023-03-06T05:09:38.839Z,98100.16
2023-03-06T05:12:06.393Z,98093.88
2023-03-06T05:14:33.349Z,98096.41
2023-03-06T05:17:00.484Z,98081.25
2023-03-06T05:19:27.575Z,98095.72
2023-03-06T05:21:54.447Z,98095.94
2023-03-06T05:24:21.500Z,98098.03
2023-03-06T05:26:48.432Z,98097.13
2023-03-06T05:29:15.350Z,98098.41
2023-03-06T05:31:42.299Z,98097.59
2023-03-06T05:34:13.499Z,98101.69
2023-03-06T05:36:40.410Z,98101.53
2023-03-06T05:39:07.867Z,98100.97
2023-03-06T05:41:35.301Z,98104.59
2023-03-06T05:44:02.412Z,98112.97
2023-03-06T05:46:29.322Z,98108.88
2023-03-06T05:48:57.608Z,98106.00
2023-03-06T05:51:26.729Z,98102.31
2023-03-06T05:53:53.785Z,98112.22
2023-03-06T05:56:21.960Z,98109.56
2023-03-06T05:58:49.010Z,98109.78
2023-03-06T06:01:18.754Z,98118.50
2023-03-06T06:03:46.470Z,98108.66
2023-03-06T06:06:15.264Z,98115.47
2023-03-06T06:08:42.329Z,98113.94
2023-03-06T06:11:11.256Z,98113.44
2023-03-06T06:13:38.872Z,98110.97
2023-03-06T06:16:19.205Z,98119.72
2023-03-06T06:18:46.375Z,98115.31
2023-03-06T06:21:14.818Z,98118.38
2023-03-06T06:23:42.058Z,98117.63
2023-03-06T06:26:10.409Z,98113.56
2023-03-06T06:28:37.460Z,98118.38
2023-03-06T06:31:12.421Z,98116.69
2023-03-06T06:33:40.719Z,98117.13
2023-03-06T06:36:16.100Z,98113.34
2023-03-06T06:38:43.468Z,98111.38
2023-03-06T06:41:35.982Z,98119.28
2023-03-06T06:43:59.073Z,98120.03
2023-03-06T06:47:14.377Z,98120.13
2023-03-06T06:49:14.947Z,98131.09
2023-03-06T06:51:42.206Z,98121.91
2023-03-06T06:54:11.118Z,98133.78
2023-03-06T06:56:38.470Z,98136.84
2023-03-06T06:59:15.978Z,98130.41
2023-03-06T07:01:43.929Z,98129.81
2023-03-06T07:04:14.308Z,98133.19
2023-03-06T07:06:42.208Z,98134.94
2023-03-06T07:09:09.181Z,98139.72
2023-03-06T07:11:37.857Z,98127.38
2023-03-06T07:14:05.302Z,98132.88
2023-03-06T07:16:32.241Z,98133.56
2023-03-06T07:18:59.102Z,98123.00
2023-03-06T07:21:25.976Z,98131.28
2023-03-06T07:23:54.369Z,98132.16
2023-03-06T07:26:21.413Z,98133.94
2023-03-06T07:28:53.136Z,98130.00
2023-03-06T07:31:22.567Z,98127.53
2023-03-06T07:33:50.367Z,98137.59
2023-03-06T07:36:18.239Z,98094.66
2023-03-06T07:38:45.604Z,98140.72
2023-03-06T07:41:15.405Z,98140.88
2023-03-06T07:43:51.993Z,98142.22
2023-03-06T07:46:23.515Z,98149.00
2023-03-06T07:48:50.399Z,98147.91
2023-03-06T07:51:20.128Z,98148.56
2023-03-06T07:53:47.719Z,98154.72
2023-03-06T07:56:14.862Z,98149.22
2023-03-06T07:58:44.927Z,98152.78
2023-03-06T08:01:15.245Z,98162.84
2023-03-06T08:03:42.874Z,98154.16
2023-03-06T08:06:15.405Z,98162.94
2023-03-06T08:08:44.521Z,98162.31
2023-03-06T08:11:12.837Z,98151.50
2023-03-06T08:13:40.501Z,98153.75
2023-03-06T08:16:08.346Z,98145.22
2023-03-06T08:18:35.612Z,98154.44
2023-03-06T08:21:09.583Z,98157.31
2023-03-06T08:23:37.175Z,98151.06
2023-03-06T08:26:07.107Z,98150.38
2023-03-06T08:28:42.033Z,98145.38
2023-03-06T08:31:40.817Z,98147.94
2023-03-06T08:34:10.459Z,98163.56
2023-03-06T08:36:37.673Z,98144.66
2023-03-06T08:39:05.255Z,98159.44
2023-03-06T08:41:33.339Z,98153.63
2023-03-06T08:44:00.896Z,98152.81
2023-03-06T08:46:30.009Z,98155.13
2023-03-06T08:48:57.742Z,98158.22
2023-03-06T08:51:25.108Z,98158.81
2023-03-06T08:53:52.282Z,98165.84
2023-03-06T08:56:28.491Z,98169.66
2023-03-06T08:58:57.586Z,98158.00
2023-03-06T09:01:28.560Z,98167.91
2023-03-06T09:03:57.936Z,98164.63
2023-03-06T09:06:26.648Z,98162.59
2023-03-06T09:08:54.598Z,98167.50
2023-03-06T09:11:23.716Z,98166.94
2023-03-06T09:13:50.842Z,98165.06
2023-03-06T09:16:18.244Z,98168.50
2023-03-06T09:18:45.587Z,98175.75
2023-03-06T09:21:25.094Z,98173.44
2023-03-06T09:23:52.560Z,98163.22
2023-03-06T09:26:19.640Z,98179.38
2023-03-06T09:28:47.063Z,98175.47
2023-03-06T09:31:17.411Z,98174.81
2023-03-06T09:33:45.351Z,98172.91
2023-03-06T09:36:17.794Z,98185.03
2023-03-06T09:38:45.980Z,98184.50
2023-03-06T09:41:30.506Z,98187.00
2023-03-06T09:44:18.843Z,98184.31
2023-03-06T09:47:03.782Z,98190.19
2023-03-06T09:49:57.550Z,98195.13
2023-03-06T09:52:34.047Z,98194.97
2023-03-06T09:55:20.464Z,98195.31
2023-03-06T09:58:07.464Z,98194.31
2023-03-06T10:00:39.229Z,98202.41
2023-03-06T10:03:22.590Z,98192.34
2023-03-06T10:06:02.765Z,98190.34
2023-03-06T10:08:48.506Z,98189.28
2023-03-06T10:11:22.930Z,98184.69
2023-03-06T10:14:01.172Z,98196.53
2023-03-06T10:16:33.219Z,98194.09
2023-03-06T10:19:03.640Z,98192.00
2023-03-06T10:21:45.513Z,98189.97
2023-03-06T10:24:49.472Z,98192.81
2023-03-06T10:27:17.021Z,98185.84
2023-03-06T10:30:01.711Z,98197.78
2023-03-06T10:32:49.492Z,98184.06
2023-03-06T10:35:25.788Z,98191.84
2023-03-06T10:38:01.115Z,98191.34
2023-03-06T10:40:38.499Z,98196.50
2023-03-06T10:43:12.174Z,98196.09
2023-03-06T10:45:51.374Z,98199.34
2023-03-06T10:48:24.593Z,98204.59
2023-03-06T10:50:53.528Z,98213.16
2023-03-06T10:53:29.248Z,98220.50
2023-03-06T10:56:00.511Z,98206.47
2023-03-06T10:58:30.363Z,98213.13
2023-03-06T11:01:01.979Z,98207.19
2023-03-06T11:03:29.615Z,98208.28
2023-03-06T11:06:13.350Z,98200.63
2023-03-06T11:08:43.469Z,98209.03
2023-03-06T11:11:36.841Z,98211.50
2023-03-06T11:14:15.885Z,98210.81
2023-03-06T11:16:53.443Z,98210.81
2023-03-06T11:19:23.675Z,98218.16
2023-03-06T11:22:17.378Z,98214.50
2023-03-06T11:24:48.757Z,98219.25
2023-03-06T11:27:15.607Z,98215.94
2023-03-06T11:29:48.806Z,98214.00
2023-03-06T11:32:57.871Z,98207.31
2023-03-06T11:35:52.089Z,98206.44
2023-03-06T11:38:38.994Z,98209.16
2023-03-06T11:41:14.943Z,98203.69
2023-03-06T11:43:53.169Z,98208.66
2023-03-06T11:46:26.474Z,98206.50
2023-03-06T11:49:04.678Z,98216.13
2023-03-06T11:51:38.149Z,98212.59
2023-03-06T11:54:05.315Z,98212.84
2023-03-06T11:56:44.455Z,98211.22
2023-03-06T11:59:29.141Z,98216.00
2023-03-06T12:02:20.292Z,98225.34
2023-03-06T12:05:09.872Z,98221.16
2023-03-06T12:07:45.025Z,98225.59
2023-03-06T12:10:35.538Z,98229.19
2023-03-06T12:13:30.203Z,98227.56
2023-03-06T12:16:18.618Z,98237.13
2023-03-06T12:19:22.242Z,98238.09
2023-03-06T12:22:23.380Z,98232.16
2023-03-06T12:24:56.352Z,98234.63
2023-03-06T12:27:35.018Z,98235.56
2023-03-06T12:30:09.984Z,98233.25
2023-03-06T12:32:55.860Z,98231.38
2023-03-06T12:35:56.998Z,98234.63
2023-03-06T12:38:52.141Z,98244.66
2023-03-06T12:41:34.333Z,98245.97
2023-03-06T12:44:07.410Z,98236.63
2023-03-06T12:46:58.835Z,98255.88
2023-03-06T12:49:38.828Z,98251.16
2023-03-06T12:52:18.529Z,98251.34
2023-03-06T12:54:46.154Z,98251.97
2023-03-06T12:57:15.753Z,98259.69
2023-03-06T12:59:50.146Z,98254.28
2023-03-06T13:02:41.714Z,98246.75
2023-03-06T13:05:41.503Z,98257.94
2023-03-06T13:08:17.500Z,98258.00
2023-03-06T13:10:48.696Z,98256.16
2023-03-06T13:13:45.936Z,98253.03
2023-03-06T13:16:18.873Z,98258.38
2023-03-06T13:18:51.081Z,98265.91
2023-03-06T13:21:42.738Z,98261.69
2023-03-06T13:24:23.112Z,98265.81
2023-03-06T13:27:00.029Z,98267.84
2023-03-06T13:29:38.993Z,98258.25
2023-03-06T13:32:17.263Z,98270.06
2023-03-06T13:34:48.589Z,98265.91
2023-03-06T13:37:23.277Z,98267.38
2023-03-06T13:39:56.781Z,98274.09
2023-03-06T13:42:38.014Z,98275.72
2023-03-06T13:45:15.107Z,98257.84
2023-03-06T13:48:09.630Z,98269.81
2023-03-06T13:50:29.132Z,98280.50
2023-03-06T13:53:17.198Z,98277.22
2023-03-06T13:56:53.197Z,98278.97
2023-03-06T13:59:38.795Z,98287.72
2023-03-06T14:02:27.265Z,98284.28
2023-03-06T14:05:02.465Z,98280.78
2023-03-06T14:07:33.658Z,98286.88
2023-03-06T14:10:15.154Z,98286.19
2023-03-06T14:12:51.203Z,98296.13
2023-03-06T14:15:24.892Z,98297.66
2023-03-06T14:18:02.317Z,98303.72
2023-03-06T14:21:04.761Z,98303.47
2023-03-06T14:23:35.631Z,98314.94
2023-03-06T14:26:05.483Z,98306.53
2023-03-06T14:28:34.337Z,98307.22
2023-03-06T14:31:03.600Z,98306.66
2023-03-06T14:33:40.237Z,98312.94
2023-03-06T14:36:10.764Z,98307.81
2023-03-06T14:38:44.244Z,98308.19
2023-03-06T14:41:13.040Z,98320.28
2023-03-06T14:43:41.002Z,98321.22
2023-03-06T14:46:18.327Z,98322.16
2023-03-06T14:48:47.000Z,98318.50
2023-03-06T14:51:25.605Z,98329.97
2023-03-06T14:53:54.598Z,98328.81
2023-03-06T14:56:26.511Z,98329.28
2023-03-06T14:59:03.984Z,98334.56
2023-03-06T15:01:31.094Z,98341.00
2023-03-06T15:04:00.431Z,98336.56
2023-03-06T15:06:37.831Z,98344.50
2023-03-06T15:09:24.472Z,98345.31
2023-03-06T15:12:03.819Z,98360.97
2023-03-06T15:14:41.962Z,98360.16
2023-03-06T15:17:18.041Z,98366.25
2023-03-06T15:19:47.674Z,98363.91
2023-03-06T15:22:25.562Z,98370.09
2023-03-06T15:24:53.357Z,98369.22
2023-03-06T15:27:29.602Z,98373.66
2023-03-06T15:30:36.529Z,98379.94
2023-03-06T15:33:25.755Z,98378.78
2023-03-06T15:35:52.800Z,98386.91
2023-03-06T15:38:41.924Z,98388.66
2023-03-06T15:41:31.394Z,98395.13
2023-03-06T15:44:00.345Z,98392.34
2023-03-06T15:46:28.002Z,98398.09
2023-03-06T15:48:59.787Z,98404.03
2023-03-06T15:51:28.678Z,98408.72
2023-03-06T15:54:09.693Z,98410.22
2023-03-06T15:56:44.629Z,98413.78
2023-03-06T15:59:24.698Z,98420.31
2023-03-06T16:01:52.527Z,98426.06
2023-03-06T16:04:20.041Z,98423.81
2023-03-06T16:06:47.218Z,98435.09
2023-03-06T16:09:14.604Z,98433.69
2023-03-06T16:11:44.934Z,98440.03
2023-03-06T16:14:23.976Z,98439.00
2023-03-06T16:16:54.183Z,98445.88
2023-03-06T16:19:27.795Z,98448.78
2023-03-06T16:21:56.854Z,98450.34
2023-03-06T16:24:26.190Z,98453.63
2023-03-06T16:26:55.076Z,98453.75
2023-03-06T16:29:24.705Z,98458.25
2023-03-06T16:31:51.994Z,98461.06
2023-03-06T16:34:21.956Z,98459.13
2023-03-06T16:36:50.212Z,98460.06
2023-03-06T16:39:22.776Z,98450.16
2023-03-06T16:41:50.877Z,98462.78
2023-03-06T16:44:17.939Z,98466.03
2023-03-06T16:46:47.477Z,98463.41
2023-03-06T16:49:18.537Z,98477.16
2023-03-06T16:51:45.683Z,98468.31
2023-03-06T16:54:13.446Z,98468.94
2023-03-06T16:56:40.528Z,98478.00
2023-03-06T16:59:07.489Z,98480.66
2023-03-06T17:01:34.642Z,98476.72
2023-03-06T17:04:01.760Z,98479.31
2023-03-06T17:06:28.837Z,98476.84
2023-03-06T17:08:58.046Z,98483.94
2023-03-06T17:11:25.260Z,98482.59
2023-03-06T17:13:52.219Z,98488.16
2023-03-06T17:16:19.381Z,98488.38
2023-03-06T17:18:46.670Z,98486.22
2023-03-06T17:21:15.776Z,98492.56
2023-03-06T17:23:44.546Z,98500.47
2023-03-06T17:26:20.480Z,98503.75
2023-03-06T17:28:47.591Z,98507.03
2023-03-06T17:31:26.758Z,98504.06
2023-03-06T17:33:57.314Z,98506.31
2023-03-06T17:36:24.236Z,98503.53
2023-03-06T17:38:51.466Z,98517.59
2023-03-06T17:41:18.617Z,98512.66
2023-03-06T17:43:45.548Z,98510.19
2023-03-06T17:46:13.659Z,98512.78
2023-03-06T17:48:40.686Z,98526.56
2023-03-06T17:51:08.386Z,98524.41
2023-03-06T17:53:35.995Z,98525.41
2023-03-06T17:56:12.716Z,98523.38
2023-03-06T17:58:39.671Z,98533.03
2023-03-06T18:01:18.458Z,98535.28
2023-03-06T18:03:47.901Z,98534.44
2023-03-06T18:06:16.595Z,98545.53
2023-03-06T18:08:44.163Z,98544.19
2023-03-06T18:11:11.719Z,98546.44
2023-03-06T18:13:41.727Z,98527.41
2023-03-06T18:16:11.390Z,98542.59
2023-03-06T18:18:38.793Z,98548.03
2023-03-06T18:21:11.050Z,98550.78
2023-03-06T18:23:39.998Z,98555.72
2023-03-06T18:26:18.946Z,98545.84
2023-03-06T18:28:49.122Z,98553.63
2023-03-06T18:31:22.085Z,98550.25
2023-03-06T18:33:49.928Z,98555.97
2023-03-06T18:36:18.150Z,98556.91
2023-03-06T18:38:45.824Z,98554.63
2023-03-06T18:41:13.953Z,98553.66
2023-03-06T18:43:41.053Z,98564.84
2023-03-06T18:46:09.701Z,98558.88
2023-03-06T18:48:37.377Z,98562.66
2023-03-06T18:51:10.015Z,98562.00
2023-03-06T18:53:37.325Z,98560.47
2023-03-06T18:56:04.397Z,98566.97
2023-03-06T18:58:31.448Z,98564.81
2023-03-06T19:00:59.827Z,98567.34
2023-03-06T19:03:27.505Z,98570.84
2023-03-06T19:05:54.575Z,98574.56
2023-03-06T19:08:21.829Z,98562.72
2023-03-06T19:10:50.218Z,98576.13
2023-03-06T19:13:17.337Z,98574.94
2023-03-06T19:15:49.036Z,98566.72
2023-03-06T19:18:18.036Z,98566.72
2023-03-06T19:20:45.410Z,98570.56
2023-03-06T19:23:12.386Z,98576.06
2023-03-06T19:25:39.440Z,98570.97
2023-03-06T19:28:06.610Z,98575.91
2023-03-06T19:30:33.836Z,98580.91
2023-03-06T19:33:00.842Z,98586.97
2023-03-06T19:35:27.939Z,98576.63
2023-03-06T19:37:55.002Z,98581.00
2023-03-06T19:40:22.108Z,98583.19
2023-03-06T19:42:49.979Z,98590.47
2023-03-06T19:45:17.244Z,98590.00
2023-03-06T19:47:44.289Z,98591.94
2023-03-06T19:50:11.640Z,98595.59
2023-03-06T19:52:40.768Z,98589.00
2023-03-06T19:55:09.830Z,98588.72
2023-03-06T19:57:37.008Z,98593.94
2023-03-06T20:00:05.138Z,98591.19
2023-03-06T20:02:39.927Z,98591.72
2023-03-06T20:05:09.281Z,98584.56
2023-03-06T20:07:36.319Z,98592.13
2023-03-06T20:10:03.966Z,98597.91
2023-03-06T20:12:32.764Z,98593.75
2023-03-06T20:15:00.187Z,98597.97
2023-03-06T20:17:27.972Z,98595.81
2023-03-06T20:19:55.206Z,98591.41
2023-03-06T20:22:22.222Z,98587.72
2023-03-06T20:24:49.306Z,98587.31
2023-03-06T20:27:16.256Z,98593.66
2023-03-06T20:29:44.815Z,98591.78
2023-03-06T20:32:13.341Z,98594.56
2023-03-06T20:34:40.915Z,98596.91
2023-03-06T20:37:09.796Z,98599.59
2023-03-06T20:39:37.424Z,98598.56
2023-03-06T20:42:04.827Z,98604.53
2023-03-06T20:44:32.031Z,98598.44
2023-03-06T20:46:59.206Z,98596.91
2023-03-06T20:49:27.386Z,98598.56
2023-03-06T20:51:55.721Z,98598.00
2023-03-06T20:54:22.727Z,98598.78
2023-03-06T20:56:50.401Z,98602.41
2023-03-06T20:59:17.452Z,98597.56
2023-03-06T21:01:45.810Z,98591.59
2023-03-06T21:04:14.137Z,98596.63
2023-03-06T21:06:46.337Z,98597.47
2023-03-06T21:09:16.178Z,98602.00
2023-03-06T21:11:43.354Z,98598.22
2023-03-06T21:14:12.459Z,98591.72
2023-03-06T21:16:40.288Z,98597.31
2023-03-06T21:19:07.383Z,98600.03
2023-03-06T21:21:35.123Z,98596.50
2023-03-06T21:24:02.790Z,98601.47
2023-03-06T21:26:33.715Z,98602.69
2023-03-06T21:29:01.114Z,98602.31
2023-03-06T21:31:29.074Z,98601.44
2023-03-06T21:33:59.617Z,98611.44
2023-03-06T21:36:27.461Z,98608.63
2023-03-06T21:38:55.458Z,98603.41
2023-03-06T21:41:27.923Z,98604.53
2023-03-06T21:44:02.831Z,98613.44
2023-03-06T21:46:30.075Z,98614.06
2023-03-06T21:48:57.235Z,98611.06
2023-03-06T21:51:25.893Z,98614.78
2023-03-06T21:53:54.024Z,98616.56
2023-03-06T21:56:23.991Z,98616.19
2023-03-06T21:58:51.216Z,98606.13
2023-03-06T22:01:21.828Z,98615.31
2023-03-06T22:03:48.915Z,98622.59
2023-03-06T22:06:21.764Z,98613.56
2023-03-06T22:08:48.901Z,98606.47
2023-03-06T22:11:18.493Z,98610.69
2023-03-06T22:13:46.304Z,98617.19
2023-03-06T22:16:14.583Z,98612.50
2023-03-06T22:18:46.178Z,98611.06
2023-03-06T22:21:16.163Z,98609.50
2023-03-06T22:23:43.209Z,98614.72
2023-03-06T22:26:13.711Z,98609.59
2023-03-06T22:28:41.771Z,98605.25
2023-03-06T22:31:11.414Z,98604.63
2023-03-06T22:33:38.792Z,98601.44
2023-03-06T22:36:14.204Z,98603.00
2023-03-06T22:38:43.043Z,98601.34
2023-03-06T22:41:12.813Z,98600.53
2023-03-06T22:43:42.812Z,98605.34
2023-03-06T22:46:13.010Z,98597.97
2023-03-06T22:48:40.492Z,98604.41
2023-03-06T22:51:10.372Z,98608.44
2023-03-06T22:53:37.744Z,98606.06
2023-03-06T22:56:06.450Z,98606.88
2023-03-06T22:58:37.308Z,98601.34
2023-03-06T23:01:09.974Z,98609.06
2023-03-06T23:03:38.656Z,98604.47
2023-03-06T23:06:14.920Z,98600.06
2023-03-06T23:08:42.400Z,98599.16
2023-03-06T23:11:14.682Z,98599.25
2023-03-06T23:14:00.191Z,98590.22
2023-03-06T23:16:45.549Z,98602.44
2023-03-06T23:19:31.551Z,98590.56
2023-03-06T23:22:17.332Z,98596.31
2023-03-06T23:25:02.980Z,98594.59
2023-03-06T23:27:30.750Z,98604.16
2023-03-06T23:29:59.192Z,98601.91
2023-03-06T23:32:26.239Z,98594.41
2023-03-06T23:34:53.246Z,98604.81
2023-03-06T23:37:20.544Z,98598.06
2023-03-06T23:39:47.871Z,98601.19
2023-03-06T23:42:30.468Z,98598.34
2023-03-06T23:45:01.240Z,98603.28
2023-03-06T23:47:32.199Z,98602.25
2023-03-06T23:49:59.321Z,98600.44
2023-03-06T23:52:26.854Z,98599.34
2023-03-06T23:54:54.177Z,98598.09
2023-03-06T23:57:21.054Z,98600.72
2023-03-06T23:59:47.891Z,98599.97
